sensor_id;sensor_type;location;lat;lon;timestamp;pressure;altitude;pressure_sealevel;temperature;humidity
21290;BME280;10804;48.988;2.408;2022-08-21T18:14:55;100665.84;;;26.13;45.68
21290;BME280;10804;48.988;2.408;2022-08-21T18:17:23;100673.75;;;26.15;45.32
21290;BME280;10804;48.988;2.408;2022-08-21T18:19:53;100665.44;;;26.18;45.56
21290;BME280;10804;48.988;2.408;2022-08-21T18:22:20;100672.50;;;26.19;45.72
21290;BME280;10804;48.988;2.408;2022-08-21T18:24:48;100674.31;;;26.18;45.81
21290;BME280;10804;48.988;2.408;2022-08-21T18:27:16;100676.88;;;26.20;46.06
21290;BME280;10804;48.988;2.408;2022-08-21T18:29:44;100658.41;;;26.17;46.12
21290;BME280;10804;48.988;2.408;2022-08-21T18:32:14;100666.16;;;26.20;46.15
21290;BME280;10804;48.988;2.408;2022-08-21T18:34:47;100666.28;;;26.18;46.06
21290;BME280;10804;48.988;2.408;2022-08-21T18:37:15;100667.41;;;26.16;46.35
21290;BME280;10804;48.988;2.408;2022-08-21T18:39:42;100668.13;;;26.18;46.53
21290;BME280;10804;48.988;2.408;2022-08-21T18:42:11;100677.13;;;26.17;46.70
21290;BME280;10804;48.988;2.408;2022-08-21T18:44:40;100672.75;;;26.16;46.33
21290;BME280;10804;48.988;2.408;2022-08-21T18:47:14;100672.75;;;26.16;46.81
21290;BME280;10804;48.988;2.408;2022-08-21T18:49:44;100665.72;;;26.15;47.20
21290;BME280;10804;48.988;2.408;2022-08-21T18:52:11;100669.38;;;26.14;46.92
21290;BME280;10804;48.988;2.408;2022-08-21T18:54:39;100668.53;;;26.13;47.42
21290;BME280;10804;48.988;2.408;2022-08-21T18:57:06;100670.38;;;26.13;47.40
21290;BME280;10804;48.988;2.408;2022-08-21T18:59:34;100676.72;;;26.12;47.42
21290;BME280;10804;48.988;2.408;2022-08-21T19:02:01;100684.88;;;26.10;47.64
21290;BME280;10804;48.988;2.408;2022-08-21T19:04:34;100681.34;;;26.10;47.81
21290;BME280;10804;48.988;2.408;2022-08-21T19:07:02;100682.31;;;26.09;47.94
21290;BME280;10804;48.988;2.408;2022-08-21T19:09:30;100677.25;;;26.06;47.88
21290;BME280;10804;48.988;2.408;2022-08-21T19:11:57;100679.94;;;26.06;48.09
21290;BME280;10804;48.988;2.408;2022-08-21T19:14:25;100679.25;;;26.04;47.99
21290;BME280;10804;48.988;2.408;2022-08-21T19:16:53;100682.91;;;26.03;48.04
21290;BME280;10804;48.988;2.408;2022-08-21T19:19:22;100687.50;;;26.01;48.10
21290;BME280;10804;48.988;2.408;2022-08-21T19:21:51;100684.00;;;26.00;48.08
21290;BME280;10804;48.988;2.408;2022-08-21T19:24:20;100687.69;;;25.99;48.27
21290;BME280;10804;48.988;2.408;2022-08-21T19:26:48;100678.09;;;25.97;48.45
21290;BME280;10804;48.988;2.408;2022-08-21T19:29:17;100689.63;;;25.97;48.27
21290;BME280;10804;48.988;2.408;2022-08-21T19:31:46;100681.75;;;25.96;48.26
21290;BME280;10804;48.988;2.408;2022-08-21T19:34:15;100685.53;;;25.93;48.44
21290;BME280;10804;48.988;2.408;2022-08-21T19:36:44;100687.38;;;25.93;48.36
21290;BME280;10804;48.988;2.408;2022-08-21T19:39:13;100683.88;;;25.92;48.46
21290;BME280;10804;48.988;2.408;2022-08-21T19:41:45;100690.19;;;25.91;48.64
21290;BME280;10804;48.988;2.408;2022-08-21T19:44:15;100672.44;;;25.90;48.52
21290;BME280;10804;48.988;2.408;2022-08-21T19:46:45;100678.94;;;25.88;48.55
21290;BME280;10804;48.988;2.408;2022-08-21T19:49:14;100678.03;;;25.87;48.70
21290;BME280;10804;48.988;2.408;2022-08-21T19:51:43;100682.53;;;25.87;48.53
21290;BME280;10804;48.988;2.408;2022-08-21T19:54:16;100680.84;;;25.86;48.67
21290;BME280;10804;48.988;2.408;2022-08-21T19:56:44;100681.81;;;25.85;48.65
21290;BME280;10804;48.988;2.408;2022-08-21T19:59:14;100689.97;;;25.83;48.64
21290;BME280;10804;48.988;2.408;2022-08-21T20:01:43;100682.94;;;25.82;48.78
21290;BME280;10804;48.988;2.408;2022-08-21T20:04:10;100688.44;;;25.81;48.67
21290;BME280;10804;48.988;2.408;2022-08-21T20:06:38;100690.38;;;25.79;48.54
21290;BME280;10804;48.988;2.408;2022-08-21T20:09:06;100695.72;;;25.79;48.79
21290;BME280;10804;48.988;2.408;2022-08-21T20:11:38;100687.00;;;25.77;48.79
21290;BME280;10804;48.988;2.408;2022-08-21T20:14:08;100685.31;;;25.76;48.65
21290;BME280;10804;48.988;2.408;2022-08-21T20:16:36;100684.47;;;25.75;48.84
21290;BME280;10804;48.988;2.408;2022-08-21T20:19:04;100680.97;;;25.75;48.91
21290;BME280;10804;48.988;2.408;2022-08-21T20:21:33;100681.94;;;25.74;48.68
21290;BME280;10804;48.988;2.408;2022-08-21T20:24:02;100685.59;;;25.73;48.79
21290;BME280;10804;48.988;2.408;2022-08-21T20:26:29;100683.88;;;25.72;48.67
21290;BME280;10804;48.988;2.408;2022-08-21T20:28:59;100689.53;;;25.69;48.88
21290;BME280;10804;48.988;2.408;2022-08-21T20:31:26;100701.19;;;25.68;48.91
21290;BME280;10804;48.988;2.408;2022-08-21T20:33:54;100687.13;;;25.66;48.93
21290;BME280;10804;48.988;2.408;2022-08-21T20:36:21;100690.91;;;25.63;48.99
21290;BME280;10804;48.988;2.408;2022-08-21T20:38:50;100699.06;;;25.62;49.09
21290;BME280;10804;48.988;2.408;2022-08-21T20:41:18;100700.03;;;25.61;49.09
21290;BME280;10804;48.988;2.408;2022-08-21T20:43:47;100695.69;;;25.60;49.01
21290;BME280;10804;48.988;2.408;2022-08-21T20:46:23;100691.31;;;25.59;49.03
21290;BME280;10804;48.988;2.408;2022-08-21T20:48:51;100688.78;;;25.57;49.04
21290;BME280;10804;48.988;2.408;2022-08-21T20:51:22;100695.97;;;25.57;49.19
21290;BME280;10804;48.988;2.408;2022-08-21T20:53:56;100698.88;;;25.54;49.32
21290;BME280;10804;48.988;2.408;2022-08-21T20:56:34;100701.56;;;25.54;49.23
21290;BME280;10804;48.988;2.408;2022-08-21T20:59:17;100703.53;;;25.52;49.18
21290;BME280;10804;48.988;2.408;2022-08-21T21:01:51;100712.53;;;25.51;49.29
21290;BME280;10804;48.988;2.408;2022-08-21T21:04:35;100704.63;;;25.49;49.39
21290;BME280;10804;48.988;2.408;2022-08-21T21:07:04;100704.75;;;25.48;49.32
21290;BME280;10804;48.988;2.408;2022-08-21T21:09:35;100712.94;;;25.46;49.38
21290;BME280;10804;48.988;2.408;2022-08-21T21:12:07;100714.75;;;25.46;49.37
21290;BME280;10804;48.988;2.408;2022-08-21T21:14:43;100717.69;;;25.43;49.41
21290;BME280;10804;48.988;2.408;2022-08-21T21:17:18;100718.50;;;25.43;49.36
21290;BME280;10804;48.988;2.408;2022-08-21T21:19:49;100711.59;;;25.41;49.46
21290;BME280;10804;48.988;2.408;2022-08-21T21:22:23;100717.94;;;25.40;49.54
21290;BME280;10804;48.988;2.408;2022-08-21T21:24:56;100721.72;;;25.37;49.57
21290;BME280;10804;48.988;2.408;2022-08-21T21:27:30;100720.03;;;25.36;49.58
21290;BME280;10804;48.988;2.408;2022-08-21T21:30:02;100729.88;;;25.36;49.51
21290;BME280;10804;48.988;2.408;2022-08-21T21:32:32;100730.00;;;25.34;49.37
21290;BME280;10804;48.988;2.408;2022-08-21T21:35:03;100730.13;;;25.33;49.60
21290;BME280;10804;48.988;2.408;2022-08-21T21:37:34;100731.09;;;25.32;49.56
21290;BME280;10804;48.988;2.408;2022-08-21T21:40:32;100738.28;;;25.31;49.64
21290;BME280;10804;48.988;2.408;2022-08-21T21:43:24;100733.19;;;25.28;49.54
21290;BME280;10804;48.988;2.408;2022-08-21T21:46:13;100732.38;;;25.28;49.57
21290;BME280;10804;48.988;2.408;2022-08-21T21:48:57;100736.97;;;25.26;49.59
21290;BME280;10804;48.988;2.408;2022-08-21T21:51:36;100735.28;;;25.25;49.65
21290;BME280;10804;48.988;2.408;2022-08-21T21:54:17;100730.94;;;25.24;49.72
21290;BME280;10804;48.988;2.408;2022-08-21T21:56:52;100735.56;;;25.22;49.70
21290;BME280;10804;48.988;2.408;2022-08-21T21:59:36;100736.50;;;25.21;49.65
21290;BME280;10804;48.988;2.408;2022-08-21T22:02:20;100733.97;;;25.19;49.70
21290;BME280;10804;48.988;2.408;2022-08-21T22:04:59;100729.72;;;25.17;49.74
21290;BME280;10804;48.988;2.408;2022-08-21T22:07:36;100737.03;;;25.15;49.77
21290;BME280;10804;48.988;2.408;2022-08-21T22:10:13;100733.66;;;25.13;49.76
21290;BME280;10804;48.988;2.408;2022-08-21T22:12:47;100737.31;;;25.12;49.79
21290;BME280;10804;48.988;2.408;2022-08-21T22:15:20;100737.44;;;25.10;49.80
21290;BME280;10804;48.988;2.408;2022-08-21T22:17:50;100738.53;;;25.08;49.73
21290;BME280;10804;48.988;2.408;2022-08-21T22:20:28;100739.50;;;25.07;49.69
21290;BME280;10804;48.988;2.408;2022-08-21T22:23:02;100742.19;;;25.07;49.77
21290;BME280;10804;48.988;2.408;2022-08-21T22:25:36;100733.59;;;25.03;49.87
21290;BME280;10804;48.988;2.408;2022-08-21T22:28:11;100747.06;;;25.02;49.82
21290;BME280;10804;48.988;2.408;2022-08-21T22:30:42;100752.66;;;24.99;49.85
21290;BME280;10804;48.988;2.408;2022-08-21T22:33:13;100754.63;;;24.97;50.02
21290;BME280;10804;48.988;2.408;2022-08-21T22:35:43;100743.09;;;24.96;49.85
21290;BME280;10804;48.988;2.408;2022-08-21T22:38:27;100754.84;;;24.94;49.99
21290;BME280;10804;48.988;2.408;2022-08-21T22:41:09;100745.28;;;24.91;49.88
21290;BME280;10804;48.988;2.408;2022-08-21T22:43:49;100758.78;;;24.90;49.94
21290;BME280;10804;48.988;2.408;2022-08-21T22:46:24;100753.56;;;24.88;49.95
21290;BME280;10804;48.988;2.408;2022-08-21T22:48:55;100759.03;;;24.87;50.04
21290;BME280;10804;48.988;2.408;2022-08-21T22:51:30;100750.31;;;24.85;50.02
21290;BME280;10804;48.988;2.408;2022-08-21T22:54:01;100749.84;;;24.80;49.97
21290;BME280;10804;48.988;2.408;2022-08-21T22:56:36;100749.84;;;24.80;50.02
21290;BME280;10804;48.988;2.408;2022-08-21T22:59:07;100747.44;;;24.77;50.00
21290;BME280;10804;48.988;2.408;2022-08-21T23:01:42;100752.78;;;24.77;50.07
21290;BME280;10804;48.988;2.408;2022-08-21T23:04:17;100752.06;;;24.75;49.99
21290;BME280;10804;48.988;2.408;2022-08-21T23:06:48;100749.63;;;24.72;50.03
21290;BME280;10804;48.988;2.408;2022-08-21T23:09:19;100744.44;;;24.71;50.17
21290;BME280;10804;48.988;2.408;2022-08-21T23:11:47;100742.88;;;24.68;50.12
21290;BME280;10804;48.988;2.408;2022-08-21T23:14:14;100751.00;;;24.67;50.23
21290;BME280;10804;48.988;2.408;2022-08-21T23:16:49;100743.09;;;24.65;50.12
21290;BME280;10804;48.988;2.408;2022-08-21T23:19:29;100749.44;;;24.64;50.07
21290;BME280;10804;48.988;2.408;2022-08-21T23:22:11;100752.25;;;24.63;50.29
21290;BME280;10804;48.988;2.408;2022-08-21T23:24:57;100746.16;;;24.61;50.34
21290;BME280;10804;48.988;2.408;2022-08-21T23:27:35;100749.09;;;24.58;50.24
21290;BME280;10804;48.988;2.408;2022-08-21T23:30:10;100754.56;;;24.56;50.23
21290;BME280;10804;48.988;2.408;2022-08-21T23:32:54;100748.47;;;24.54;50.36
21290;BME280;10804;48.988;2.408;2022-08-21T23:35:29;100760.13;;;24.53;50.29
21290;BME280;10804;48.988;2.408;2022-08-21T23:38:20;100750.53;;;24.51;50.23
21290;BME280;10804;48.988;2.408;2022-08-21T23:40:56;100744.34;;;24.50;50.22
21290;BME280;10804;48.988;2.408;2022-08-21T23:43:34;100740.97;;;24.48;50.35
21290;BME280;10804;48.988;2.408;2022-08-21T23:46:21;100734.94;;;24.46;50.28
21290;BME280;10804;48.988;2.408;2022-08-21T23:48:55;100739.56;;;24.44;50.41
21290;BME280;10804;48.988;2.408;2022-08-21T23:51:31;100734.34;;;24.43;50.33
21290;BME280;10804;48.988;2.408;2022-08-21T23:54:09;100735.31;;;24.42;50.32
21290;BME280;10804;48.988;2.408;2022-08-21T23:56:49;100741.75;;;24.39;50.51
